createdAt,value
2022-09-12T00:01:21.272Z,91.54
2022-09-12T00:03:52.770Z,92.15
2022-09-12T00:06:24.488Z,90.75
2022-09-12T00:08:56.895Z,90.96
2022-09-12T00:11:24.747Z,90.43
2022-09-12T00:13:57.396Z,91.15
2022-09-12T00:16:27.168Z,90.27
2022-09-12T00:18:55.048Z,90.15
2022-09-12T00:21:23.404Z,91.45
2022-09-12T00:23:51.715Z,92.06
2022-09-12T00:26:21.782Z,91.90
2022-09-12T00:28:49.692Z,91.13
2022-09-12T00:31:20.695Z,91.77
2022-09-12T00:33:48.414Z,91.06
2022-09-12T00:36:19.097Z,91.86
2022-09-12T00:38:47.984Z,91.63
2022-09-12T00:41:40.567Z,91.12
2022-09-12T00:44:24.208Z,91.57
2022-09-12T00:47:00.745Z,92.10
2022-09-12T00:49:36.295Z,92.15
2022-09-12T00:52:10.528Z,92.68
2022-09-12T00:54:59.178Z,93.82
2022-09-12T00:57:32.735Z,92.99
2022-09-12T01:00:12.713Z,92.85
2022-09-12T01:02:41.484Z,92.69
2022-09-12T01:05:10.391Z,92.71
2022-09-12T01:07:40.320Z,92.44
2022-09-12T01:10:09.718Z,91.74
2022-09-12T01:12:40.649Z,91.99
2022-09-12T01:15:08.819Z,92.47
2022-09-12T01:17:58.074Z,93.91
2022-09-12T01:20:45.208Z,92.59
2022-09-12T01:23:49.154Z,92.60
2022-09-12T01:26:48.822Z,94.09
2022-09-12T01:29:34.921Z,93.39
2022-09-12T01:32:02.670Z,92.75
2022-09-12T01:34:49.290Z,92.24
2022-09-12T01:37:39.496Z,92.89
2022-09-12T01:40:15.276Z,93.29
2022-09-12T01:43:05.377Z,92.78
2022-09-12T01:45:51.520Z,93.50
2022-09-12T01:48:33.241Z,93.90
2022-09-12T01:51:21.401Z,93.44
2022-09-12T01:53:55.567Z,93.47
2022-09-12T01:56:31.024Z,93.77
2022-09-12T01:59:05.785Z,94.18
2022-09-12T02:01:39.173Z,94.50
2022-09-12T02:04:16.893Z,93.93
2022-09-12T02:06:58.849Z,94.36
2022-09-12T02:09:46.430Z,94.41
2022-09-12T02:12:19.151Z,95.18
2022-09-12T02:14:54.392Z,95.28
2022-09-12T02:17:26.398Z,95.73
2022-09-12T02:20:08.692Z,95.16
2022-09-12T02:22:38.287Z,95.12
2022-09-12T02:25:09.199Z,94.91
2022-09-12T02:27:42.917Z,95.27
2022-09-12T02:30:12.890Z,94.82
2022-09-12T02:32:48.302Z,95.20
2022-09-12T02:35:21.874Z,94.79
2022-09-12T02:38:00.119Z,95.20
2022-09-12T02:40:29.350Z,95.27
2022-09-12T02:42:57.701Z,95.42
2022-09-12T02:45:25.458Z,95.28
2022-09-12T02:47:58.638Z,95.09
2022-09-12T02:50:27.752Z,94.84
2022-09-12T02:52:59.721Z,95.19
2022-09-12T02:55:30.288Z,95.56
2022-09-12T02:57:58.343Z,95.29
2022-09-12T03:00:27.198Z,95.38
2022-09-12T03:03:41.340Z,95.17
2022-09-12T03:06:35.041Z,94.90
2022-09-12T03:09:26.554Z,95.18
2022-09-12T03:12:03.258Z,95.79
2022-09-12T03:15:02.898Z,95.06
2022-09-12T03:17:52.911Z,95.43
2022-09-12T03:20:37.428Z,95.36
2022-09-12T03:23:34.601Z,95.55
2022-09-12T03:26:25.543Z,95.22
2022-09-12T03:28:55.832Z,94.99
2022-09-12T03:31:23.671Z,94.74
2022-09-12T03:33:51.352Z,95.26
2022-09-12T03:36:29.812Z,95.63
2022-09-12T03:38:57.501Z,95.22
2022-09-12T03:41:25.108Z,95.12
2022-09-12T03:43:52.729Z,95.50
2022-09-12T03:46:20.367Z,95.55
2022-09-12T03:48:47.971Z,95.04
2022-09-12T03:51:15.912Z,95.04
2022-09-12T03:53:43.537Z,94.94
2022-09-12T03:56:13.887Z,94.66
2022-09-12T03:58:41.945Z,95.28
2022-09-12T04:01:15.746Z,94.88
2022-09-12T04:03:46.341Z,95.20
2022-09-12T04:06:16.884Z,95.28
2022-09-12T04:08:48.045Z,96.38
2022-09-12T04:11:16.780Z,96.01
2022-09-12T04:13:45.653Z,96.67
2022-09-12T04:16:14.488Z,98.24
2022-09-12T04:18:42.543Z,96.23
2022-09-12T04:21:16.728Z,95.96
2022-09-12T04:23:45.052Z,95.83
2022-09-12T04:26:13.797Z,95.65
2022-09-12T04:28:41.967Z,96.48
2022-09-12T04:31:15.604Z,96.95
2022-09-12T04:33:45.024Z,96.73
2022-09-12T04:36:18.388Z,95.96
2022-09-12T04:38:47.318Z,96.19
2022-09-12T04:41:18.029Z,96.18
2022-09-12T04:43:46.704Z,96.56
2022-09-12T04:46:19.645Z,97.05
2022-09-12T04:48:51.275Z,97.44
2022-09-12T04:51:25.893Z,97.46
2022-09-12T04:53:57.529Z,97.23
2022-09-12T04:56:26.616Z,97.29
2022-09-12T04:58:54.498Z,97.74
2022-09-12T05:01:23.034Z,98.66
2022-09-12T05:03:51.359Z,97.36
2022-09-12T05:06:22.078Z,97.15
2022-09-12T05:08:51.480Z,97.06
2022-09-12T05:11:25.410Z,97.05
2022-09-12T05:13:56.650Z,97.19
2022-09-12T05:16:25.906Z,97.09
2022-09-12T05:18:56.990Z,97.27
2022-09-12T05:21:26.097Z,97.22
2022-09-12T05:24:00.334Z,96.99
2022-09-12T05:26:28.164Z,96.86
2022-09-12T05:28:55.838Z,97.55
2022-09-12T05:31:25.914Z,97.25
2022-09-12T05:33:55.323Z,96.91
2022-09-12T05:36:29.213Z,97.12
2022-09-12T05:38:59.621Z,97.32
2022-09-12T05:41:30.770Z,97.68
2022-09-12T05:44:01.359Z,97.25
2022-09-12T05:46:50.749Z,97.30
2022-09-12T05:49:18.725Z,97.09
2022-09-12T05:51:46.376Z,96.85
2022-09-12T05:54:19.355Z,96.45
2022-09-12T05:56:48.218Z,96.42
2022-09-12T05:59:18.817Z,96.09
2022-09-12T06:01:46.656Z,96.26
2022-09-12T06:04:14.735Z,95.94
2022-09-12T06:06:47.083Z,96.46
2022-09-12T06:09:16.228Z,96.43
2022-09-12T06:11:48.661Z,96.39
2022-09-12T06:14:17.718Z,96.28
2022-09-12T06:16:47.346Z,96.61
2022-09-12T06:19:18.920Z,96.58
2022-09-12T06:22:19.532Z,96.59
2022-09-12T06:24:47.139Z,96.04
2022-09-12T06:27:15.597Z,96.15
2022-09-12T06:29:43.225Z,96.23
2022-09-12T06:32:11.564Z,95.89
2022-09-12T06:34:49.768Z,95.89
2022-09-12T06:37:30.030Z,95.29
2022-09-12T06:40:03.678Z,95.42
2022-09-12T06:42:32.513Z,95.25
2022-09-12T06:45:00.115Z,95.00
2022-09-12T06:47:28.160Z,94.52
2022-09-12T06:50:02.482Z,94.18
2022-09-12T06:52:33.226Z,94.49
2022-09-12T06:55:04.156Z,94.08
2022-09-12T06:57:36.645Z,93.32
2022-09-12T07:00:06.842Z,93.51
2022-09-12T07:02:34.842Z,93.31
2022-09-12T07:05:02.450Z,93.09
2022-09-12T07:07:34.139Z,93.25
2022-09-12T07:10:02.321Z,92.91
2022-09-12T07:12:30.084Z,91.42
2022-09-12T07:14:57.769Z,90.32
2022-09-12T07:17:25.354Z,90.59
2022-09-12T07:19:53.028Z,89.38
2022-09-12T07:22:20.912Z,88.07
2022-09-12T07:24:48.578Z,89.28
2022-09-12T07:27:16.931Z,87.91
2022-09-12T07:29:47.831Z,86.96
2022-09-12T07:32:15.426Z,86.12
2022-09-12T07:34:43.185Z,86.18
2022-09-12T07:37:10.794Z,84.84
2022-09-12T07:39:38.879Z,84.47
2022-09-12T07:42:07.053Z,85.21
2022-09-12T07:44:34.876Z,84.97
2022-09-12T07:47:02.775Z,85.71
2022-09-12T07:49:30.793Z,84.90
2022-09-12T07:51:58.620Z,83.73
2022-09-12T07:54:26.287Z,84.38
2022-09-12T07:59:53.817Z,81.58
2022-09-12T08:02:22.353Z,83.11
2022-09-12T08:04:51.322Z,83.94
2022-09-12T08:07:26.385Z,84.22
2022-09-12T08:09:56.756Z,83.71
2022-09-12T08:12:28.358Z,84.06
2022-09-12T08:14:55.933Z,83.56
2022-09-12T08:17:23.530Z,82.00
2022-09-12T08:19:51.230Z,81.78
2022-09-12T08:22:21.877Z,81.65
2022-09-12T08:24:49.478Z,81.02
2022-09-12T08:27:17.050Z,79.77
2022-09-12T08:29:45.713Z,79.01
2022-09-12T08:32:13.314Z,80.99
2022-09-12T08:34:40.930Z,78.13
2022-09-12T08:37:08.573Z,76.09
2022-09-12T08:39:36.157Z,77.97
2022-09-12T08:42:06.368Z,78.53
2022-09-12T08:45:08.403Z,77.56
2022-09-12T08:47:40.186Z,77.22
2022-09-12T08:50:11.564Z,77.75
2022-09-12T08:53:08.294Z,78.49
2022-09-12T08:55:46.767Z,76.08
2022-09-12T08:58:20.831Z,76.55
2022-09-12T09:01:20.643Z,73.44
2022-09-12T09:04:01.328Z,74.91
2022-09-12T09:06:47.395Z,71.07
2022-09-12T09:09:30.924Z,72.28
2022-09-12T09:12:22.628Z,71.64
2022-09-12T09:15:24.720Z,71.03
2022-09-12T09:18:00.499Z,70.84
2022-09-12T09:20:45.064Z,69.45
2022-09-12T09:23:13.095Z,71.89
2022-09-12T09:25:54.732Z,71.61
2022-09-12T09:28:30.604Z,72.05
2022-09-12T09:30:58.672Z,68.19
2022-09-12T09:33:33.762Z,67.52
2022-09-12T09:36:25.570Z,69.62
2022-09-12T09:39:25.268Z,66.50
2022-09-12T09:42:09.001Z,65.60
2022-09-12T09:44:43.992Z,67.09
2022-09-12T09:47:12.982Z,65.19
2022-09-12T09:49:41.721Z,61.24
2022-09-12T09:52:14.434Z,62.41
2022-09-12T09:54:57.464Z,62.51
2022-09-12T09:57:42.004Z,63.98
2022-09-12T10:00:46.048Z,64.42
2022-09-12T10:03:38.151Z,65.05
2022-09-12T10:06:37.857Z,62.91
2022-09-12T10:09:30.801Z,64.30
2022-09-12T10:12:04.654Z,65.79
2022-09-12T10:14:38.789Z,66.58
2022-09-12T10:17:25.414Z,65.26
2022-09-12T10:20:10.610Z,66.07
2022-09-12T10:22:40.985Z,64.61
2022-09-12T10:25:22.388Z,64.23
2022-09-12T10:28:36.130Z,61.94
2022-09-12T10:31:04.441Z,61.84
2022-09-12T10:33:41.333Z,63.89
2022-09-12T10:36:10.474Z,64.53
2022-09-12T10:38:38.592Z,63.35
2022-09-12T10:41:19.656Z,62.86
2022-09-12T10:43:48.034Z,63.72
2022-09-12T10:46:15.965Z,62.46
2022-09-12T10:48:52.770Z,63.68
2022-09-12T10:51:23.401Z,63.34
2022-09-12T10:54:12.989Z,63.10
2022-09-12T10:56:47.173Z,60.89
2022-09-12T10:59:20.557Z,62.90
2022-09-12T11:01:51.652Z,60.86
2022-09-12T11:04:34.581Z,60.75
2022-09-12T11:07:18.343Z,61.77
2022-09-12T11:10:07.670Z,60.42
2022-09-12T11:12:45.610Z,59.87
2022-09-12T11:15:28.256Z,61.03
2022-09-12T11:18:15.707Z,59.39
2022-09-12T11:21:12.255Z,60.64
2022-09-12T11:24:11.764Z,60.89
2022-09-12T11:26:55.271Z,60.41
2022-09-12T11:29:33.615Z,61.18
2022-09-12T11:32:13.820Z,62.05
2022-09-12T11:35:04.539Z,61.24
2022-09-12T11:38:04.928Z,61.51
2022-09-12T11:40:42.369Z,60.74
2022-09-12T11:43:19.341Z,59.80
2022-09-12T11:45:48.516Z,59.59
2022-09-12T11:48:40.999Z,58.94
2022-09-12T11:51:20.160Z,59.00
2022-09-12T11:54:12.593Z,57.14
2022-09-12T11:56:46.524Z,58.49
2022-09-12T11:59:29.932Z,56.91
2022-09-12T12:02:00.173Z,54.75
2022-09-12T12:04:49.259Z,54.66
2022-09-12T12:07:16.845Z,55.65
2022-09-12T12:09:52.826Z,54.65
2022-09-12T12:12:27.384Z,53.65
2022-09-12T12:14:56.395Z,55.00
2022-09-12T12:17:25.782Z,55.88
2022-09-12T12:20:06.413Z,56.37
2022-09-12T12:22:36.271Z,56.17
2022-09-12T12:25:08.429Z,56.80
2022-09-12T12:27:53.252Z,57.43
2022-09-12T12:30:39.837Z,57.38
2022-09-12T12:33:10.310Z,55.22
2022-09-12T12:35:37.874Z,55.50
2022-09-12T12:38:41.602Z,53.86
2022-09-12T12:41:25.161Z,48.95
2022-09-12T12:43:56.344Z,48.82
2022-09-12T12:46:26.919Z,49.12
2022-09-12T12:49:25.690Z,47.28
2022-09-12T12:51:58.955Z,44.29
2022-09-12T12:54:52.548Z,43.81
2022-09-12T12:57:28.412Z,44.92
2022-09-12T13:00:32.253Z,46.73
2022-09-12T13:03:31.338Z,49.03
2022-09-12T13:06:05.349Z,49.46
2022-09-12T13:08:43.614Z,49.87
2022-09-12T13:11:28.571Z,50.24
2022-09-12T13:14:07.112Z,51.15
2022-09-12T13:16:54.637Z,51.46
2022-09-12T13:20:10.847Z,52.43
2022-09-12T13:22:25.496Z,52.56
2022-09-12T13:24:58.471Z,52.86
2022-09-12T13:27:26.756Z,53.54
2022-09-12T13:30:16.443Z,54.07
2022-09-12T13:32:44.520Z,54.57
2022-09-12T13:35:29.870Z,54.87
2022-09-12T13:38:02.719Z,55.31
2022-09-12T13:41:02.311Z,55.60
2022-09-12T13:43:40.595Z,55.71
2022-09-12T13:46:15.073Z,55.77
2022-09-12T13:48:44.136Z,55.93
2022-09-12T13:51:25.103Z,55.47
2022-09-12T13:53:58.074Z,54.97
2022-09-12T13:56:26.059Z,54.93
2022-09-12T13:58:58.268Z,54.88
2022-09-12T14:01:43.824Z,54.75
2022-09-12T14:04:32.177Z,54.81
2022-09-12T14:07:03.324Z,54.20
2022-09-12T14:09:43.603Z,53.15
2022-09-12T14:12:45.822Z,52.53
2022-09-12T14:15:25.986Z,53.19
2022-09-12T14:17:58.791Z,53.32
2022-09-12T14:20:29.697Z,52.39
2022-09-12T14:23:02.347Z,52.32
2022-09-12T14:25:38.907Z,49.22
2022-09-12T14:28:10.823Z,45.30
2022-09-12T14:30:39.033Z,44.05
2022-09-12T14:33:09.966Z,47.06
2022-09-12T14:35:43.389Z,48.65
2022-09-12T14:38:17.433Z,49.72
2022-09-12T14:41:06.051Z,50.48
2022-09-12T14:43:36.406Z,49.71
2022-09-12T14:46:07.800Z,50.59
2022-09-12T14:48:43.105Z,50.89
2022-09-12T14:51:32.649Z,51.41
2022-09-12T14:54:01.059Z,51.44
2022-09-12T14:56:45.049Z,51.32
2022-09-12T14:59:29.313Z,51.77
2022-09-12T15:02:28.869Z,52.31
2022-09-12T15:05:12.463Z,52.38
2022-09-12T15:07:53.537Z,52.15
2022-09-12T15:10:38.053Z,52.57
2022-09-12T15:13:05.621Z,52.80
2022-09-12T15:15:33.455Z,52.72
2022-09-12T15:18:06.239Z,52.48
2022-09-12T15:20:39.255Z,52.42
2022-09-12T15:23:15.772Z,52.36
2022-09-12T15:25:43.412Z,52.70
2022-09-12T15:28:17.008Z,52.98
2022-09-12T15:30:45.354Z,53.19
2022-09-12T15:33:13.348Z,53.66
2022-09-12T15:35:41.080Z,53.60
2022-09-12T15:38:09.184Z,53.67
2022-09-12T15:40:36.865Z,53.93
2022-09-12T15:43:04.499Z,53.13
2022-09-12T15:45:34.458Z,52.34
2022-09-12T15:48:03.303Z,52.05
2022-09-12T15:50:30.955Z,52.09
2022-09-12T15:52:58.668Z,52.15
2022-09-12T15:55:30.194Z,52.46
2022-09-12T15:58:03.564Z,52.46
2022-09-12T16:00:34.264Z,52.89
2022-09-12T16:03:02.164Z,53.37
2022-09-12T16:05:30.000Z,53.45
2022-09-12T16:07:57.850Z,54.11
2022-09-12T16:10:29.888Z,54.53
2022-09-12T16:12:58.193Z,54.86
2022-09-12T16:15:26.250Z,55.27
2022-09-12T16:17:53.867Z,55.54
2022-09-12T16:20:23.106Z,55.85
2022-09-12T16:22:50.754Z,56.44
2022-09-12T16:25:18.481Z,56.62
2022-09-12T16:27:46.160Z,56.91
2022-09-12T16:30:13.909Z,56.90
2022-09-12T16:32:41.562Z,57.53
2022-09-12T16:35:09.690Z,57.66
2022-09-12T16:37:37.993Z,58.19
2022-09-12T16:40:07.373Z,58.22
2022-09-12T16:42:35.761Z,58.49
2022-09-12T16:45:03.880Z,58.58
2022-09-12T16:47:32.860Z,58.89
2022-09-12T16:50:00.441Z,59.12
2022-09-12T16:52:28.776Z,59.26
2022-09-12T16:54:56.925Z,59.48
2022-09-12T16:57:24.546Z,59.62
2022-09-12T16:59:52.455Z,59.74
2022-09-12T17:02:20.430Z,59.78
2022-09-12T17:04:48.831Z,59.84
2022-09-12T17:07:16.443Z,59.97
2022-09-12T17:09:47.786Z,60.10
2022-09-12T17:12:15.711Z,60.23
2022-09-12T17:14:43.320Z,60.42
2022-09-12T17:17:10.913Z,60.59
2022-09-12T17:19:38.900Z,60.85
2022-09-12T17:22:06.483Z,61.09
2022-09-12T17:24:34.640Z,61.24
2022-09-12T17:27:02.830Z,61.36
2022-09-12T17:29:31.007Z,61.71
2022-09-12T17:31:59.126Z,62.01
2022-09-12T17:34:26.816Z,62.17
2022-09-12T17:36:54.412Z,62.05
2022-09-12T17:39:22.149Z,62.30
2022-09-12T17:41:51.858Z,62.29
2022-09-12T17:44:19.829Z,62.50
2022-09-12T17:46:47.479Z,62.49
2022-09-12T17:49:18.434Z,62.63
2022-09-12T17:51:46.105Z,62.86
2022-09-12T17:54:16.197Z,62.90
2022-09-12T17:56:45.931Z,63.10
2022-09-12T17:59:17.478Z,63.40
2022-09-12T18:02:02.118Z,63.68
2022-09-12T18:04:29.796Z,64.03
2022-09-12T18:07:00.245Z,64.41
2022-09-12T18:09:28.508Z,64.44
2022-09-12T18:11:56.613Z,64.50
2022-09-12T18:14:27.395Z,64.65
2022-09-12T18:16:57.202Z,64.94
2022-09-12T18:19:24.975Z,64.80
2022-09-12T18:21:56.242Z,65.09
2022-09-12T18:24:23.974Z,65.07
2022-09-12T18:26:51.748Z,65.15
2022-09-12T18:29:19.979Z,65.20
2022-09-12T18:31:49.075Z,65.21
2022-09-12T18:34:17.402Z,65.28
2022-09-12T18:36:48.941Z,65.48
2022-09-12T18:39:17.875Z,65.67
2022-09-12T18:41:45.458Z,66.07
2022-09-12T18:44:13.730Z,67.14
2022-09-12T18:46:41.958Z,67.90
2022-09-12T18:49:09.857Z,68.42
2022-09-12T18:51:39.991Z,69.32
2022-09-12T18:54:12.614Z,70.33
2022-09-12T18:56:43.406Z,69.98
2022-09-12T18:59:14.035Z,70.38
2022-09-12T19:01:43.523Z,69.91
2022-09-12T19:04:12.980Z,69.78
2022-09-12T19:06:43.726Z,69.91
2022-09-12T19:09:13.892Z,69.86
2022-09-12T19:11:50.348Z,69.81
2022-09-12T19:14:23.700Z,70.60
2022-09-12T19:16:52.047Z,70.55
2022-09-12T19:19:21.202Z,71.22
2022-09-12T19:21:48.800Z,72.18
2022-09-12T19:24:17.261Z,72.06
2022-09-12T19:26:45.792Z,72.45
2022-09-12T19:29:16.358Z,72.39
2022-09-12T19:31:45.441Z,72.78
2022-09-12T19:34:15.409Z,72.21
2022-09-12T19:36:46.009Z,72.13
2022-09-12T19:39:16.782Z,71.89
2022-09-12T19:41:44.953Z,71.58
2022-09-12T19:44:13.077Z,71.40
2022-09-12T19:46:40.889Z,71.43
2022-09-12T19:49:10.613Z,71.26
2022-09-12T19:51:38.466Z,71.33
2022-09-12T19:54:06.227Z,71.34
2022-09-12T19:56:33.813Z,71.28
2022-09-12T19:59:01.668Z,71.19
2022-09-12T20:01:29.435Z,71.07
2022-09-12T20:03:58.210Z,71.47
2022-09-12T20:06:26.658Z,71.98
2022-09-12T20:08:55.875Z,72.23
2022-09-12T20:11:24.379Z,72.95
2022-09-12T20:13:52.651Z,73.07
2022-09-12T20:16:25.188Z,73.40
2022-09-12T20:18:55.764Z,73.60
2022-09-12T20:21:30.787Z,73.77
2022-09-12T20:24:01.373Z,74.03
2022-09-12T20:26:29.719Z,74.03
2022-09-12T20:28:57.383Z,73.84
2022-09-12T20:31:25.296Z,73.66
2022-09-12T20:33:53.917Z,73.50
2022-09-12T20:36:22.545Z,73.48
2022-09-12T20:38:53.394Z,73.22
2022-09-12T20:41:21.665Z,73.02
2022-09-12T20:43:54.129Z,73.06
2022-09-12T20:46:22.959Z,73.08
2022-09-12T20:48:51.663Z,72.97
2022-09-12T20:51:25.494Z,73.09
2022-09-12T20:53:54.699Z,73.01
2022-09-12T20:56:24.410Z,72.96
2022-09-12T20:58:52.232Z,72.79
2022-09-12T21:01:21.047Z,72.69
2022-09-12T21:03:49.039Z,72.63
2022-09-12T21:06:18.135Z,72.58
2022-09-12T21:08:47.404Z,72.66
2022-09-12T21:11:16.741Z,72.88
2022-09-12T21:13:44.488Z,72.91
2022-09-12T21:16:17.851Z,72.84
2022-09-12T21:18:46.373Z,72.97
2022-09-12T21:21:15.784Z,73.29
2022-09-12T21:23:43.618Z,73.43
2022-09-12T21:26:11.935Z,73.53
2022-09-12T21:28:39.546Z,73.49
2022-09-12T21:31:07.234Z,73.52
2022-09-12T21:33:35.034Z,73.45
2022-09-12T21:36:04.450Z,73.48
2022-09-12T21:38:33.139Z,73.52
2022-09-12T21:41:05.028Z,73.63
2022-09-12T21:43:32.633Z,73.79
2022-09-12T21:46:00.694Z,73.92
2022-09-12T21:48:28.861Z,73.86
2022-09-12T21:50:56.746Z,73.88
2022-09-12T21:53:25.538Z,73.95
2022-09-12T21:55:53.718Z,73.84
2022-09-12T21:58:21.445Z,73.53
2022-09-12T22:00:49.194Z,73.48
2022-09-12T22:03:17.341Z,74.05
2022-09-12T22:05:44.928Z,74.37
2022-09-12T22:08:12.491Z,74.55
2022-09-12T22:10:40.719Z,74.88
2022-09-12T22:13:08.335Z,74.95
2022-09-12T22:15:40.471Z,75.09
2022-09-12T22:18:08.438Z,74.81
2022-09-12T22:20:36.379Z,74.70
2022-09-12T22:23:24.425Z,74.60
2022-09-12T22:25:57.604Z,74.57
2022-09-12T22:28:25.279Z,74.65
2022-09-12T22:30:54.754Z,74.88
2022-09-12T22:33:22.458Z,74.88
2022-09-12T22:35:50.174Z,74.87
2022-09-12T22:38:17.785Z,74.71
2022-09-12T22:40:45.383Z,74.42
2022-09-12T22:43:13.418Z,74.44
2022-09-12T22:45:42.123Z,74.47
2022-09-12T22:48:09.811Z,74.22
2022-09-12T22:50:37.390Z,74.24
2022-09-12T22:53:05.613Z,74.00
2022-09-12T22:55:33.272Z,74.07
2022-09-12T22:58:00.971Z,74.22
2022-09-12T23:00:29.702Z,74.29
2022-09-12T23:02:58.365Z,74.21
2022-09-12T23:05:26.175Z,74.12
2022-09-12T23:07:55.468Z,74.24
2022-09-12T23:10:23.129Z,74.15
2022-09-12T23:12:50.740Z,74.34
2022-09-12T23:15:18.339Z,74.40
2022-09-12T23:17:45.947Z,74.43
2022-09-12T23:20:13.592Z,74.36
2022-09-12T23:22:41.227Z,74.54
2022-09-12T23:25:09.158Z,74.80
2022-09-12T23:27:36.735Z,74.97
2022-09-12T23:30:05.887Z,75.03
2022-09-12T23:32:33.582Z,74.83
2022-09-12T23:35:01.241Z,75.08
2022-09-12T23:37:29.876Z,75.17
2022-09-12T23:39:57.516Z,75.28
2022-09-12T23:42:25.230Z,75.53
2022-09-12T23:44:52.812Z,75.88
2022-09-12T23:47:20.394Z,75.86
2022-09-12T23:49:48.188Z,75.97
2022-09-12T23:52:15.803Z,75.94
2022-09-12T23:54:43.373Z,75.78
2022-09-12T23:57:11.032Z,75.72
2022-09-12T23:59:38.634Z,75.71
